EZY808 EGKK-EGPH
Flight info
| Callsign | EZY808 |
|---|---|
| Flight time | 1h 1m |
| Altitude | 32000 |
| Route | N0420F320 LAM5P LAM L10 BPK N601 INPIP INPI1E |
| Aircraft | A20N/M-SDFGHIJ1RWXY/S |
Departure
| Time | 2026-04-26 18:35 |
|---|---|
| Airport | London Gatwick Airport (EGKK) |
Arrival
| Time | 2026-04-26 19:37 |
|---|---|
| Airport | Edinburgh Airport (EGPH) |
| Time | Latitude | Longitude | Altitude | Speed | Heading |
|---|---|---|---|---|---|
| 2026-04-26 18:02 | 51.15815 | -0.17929 | 207 ft | 0 kts | 78° |
| 2026-04-26 18:18 | 51.15812 | -0.17952 | 211 ft | 3 kts | 78° |
| 2026-04-26 18:18 | 51.15808 | -0.17981 | 210 ft | 3 kts | 78° |
| 2026-04-26 18:18 | 51.15804 | -0.18010 | 217 ft | 3 kts | 78° |
| 2026-04-26 18:19 | 51.15800 | -0.18039 | 210 ft | 3 kts | 88° |
| 2026-04-26 18:19 | 51.15804 | -0.18068 | 215 ft | 3 kts | 128° |
| 2026-04-26 18:19 | 51.15805 | -0.18071 | 210 ft | 0 kts | 134° |
| 2026-04-26 18:26 | 51.15781 | -0.18057 | 212 ft | 6 kts | 165° |
| 2026-04-26 18:26 | 51.15768 | -0.18054 | 207 ft | 0 kts | 187° |
| 2026-04-26 18:26 | 51.15762 | -0.18063 | 207 ft | 0 kts | 221° |
| 2026-04-26 18:27 | 51.15760 | -0.18063 | 207 ft | 1 kts | 205° |
| 2026-04-26 18:27 | 51.15734 | -0.18043 | 216 ft | 7 kts | 149° |
| 2026-04-26 18:27 | 51.15718 | -0.18031 | 211 ft | 0 kts | 159° |
| 2026-04-26 18:27 | 51.15688 | -0.18052 | 215 ft | 13 kts | 227° |
| 2026-04-26 18:28 | 51.15659 | -0.18193 | 214 ft | 0 kts | 245° |
| 2026-04-26 18:28 | 51.15657 | -0.18209 | 212 ft | 9 kts | 261° |
| 2026-04-26 18:28 | 51.15621 | -0.18349 | 211 ft | 15 kts | 192° |
| 2026-04-26 18:28 | 51.15519 | -0.18318 | 217 ft | 15 kts | 167° |
| 2026-04-26 18:29 | 51.15424 | -0.18286 | 210 ft | 14 kts | 169° |
| 2026-04-26 18:29 | 51.15332 | -0.18256 | 213 ft | 13 kts | 168° |
| 2026-04-26 18:29 | 51.15264 | -0.18230 | 212 ft | 0 kts | 166° |
| 2026-04-26 18:30 | 51.15239 | -0.18221 | 211 ft | 12 kts | 168° |
| 2026-04-26 18:30 | 51.15174 | -0.18343 | 215 ft | 24 kts | 261° |
| 2026-04-26 18:30 | 51.15135 | -0.18657 | 207 ft | 29 kts | 257° |
| 2026-04-26 18:31 | 51.15094 | -0.18969 | 210 ft | 28 kts | 258° |
| 2026-04-26 18:31 | 51.15053 | -0.19266 | 214 ft | 27 kts | 256° |
| 2026-04-26 18:31 | 51.15034 | -0.19402 | 208 ft | 0 kts | 257° |
| 2026-04-26 18:32 | 51.15032 | -0.19412 | 208 ft | 3 kts | 256° |
| 2026-04-26 18:32 | 51.15015 | -0.19530 | 213 ft | 22 kts | 257° |
| 2026-04-26 18:32 | 51.14974 | -0.19830 | 213 ft | 29 kts | 258° |
| 2026-04-26 18:32 | 51.14932 | -0.20137 | 209 ft | 28 kts | 257° |
| 2026-04-26 18:33 | 51.14892 | -0.20435 | 206 ft | 25 kts | 259° |
| 2026-04-26 18:33 | 51.14883 | -0.20502 | 214 ft | 0 kts | 256° |
| 2026-04-26 18:33 | 51.14880 | -0.20517 | 210 ft | 11 kts | 257° |
| 2026-04-26 18:34 | 51.14791 | -0.20660 | 216 ft | 18 kts | 206° |
| 2026-04-26 18:34 | 51.14623 | -0.20684 | 214 ft | 26 kts | 158° |
| 2026-04-26 18:34 | 51.14609 | -0.20478 | 213 ft | 26 kts | 76° |
| 2026-04-26 18:34 | 51.14692 | -0.19847 | 212 ft | 93 kts | 77° |
| 2026-04-26 18:35 | 51.14889 | -0.18439 | 215 ft | 162 kts | 77° |
| 2026-04-26 18:35 | 51.15142 | -0.16557 | 637 ft | 178 kts | 75° |
| 2026-04-26 18:35 | 51.15679 | -0.14862 | 1637 ft | 167 kts | 61° |
| 2026-04-26 18:35 | 51.16162 | -0.13159 | 2395 ft | 177 kts | 73° |
| 2026-04-26 18:36 | 51.16435 | -0.11128 | 2768 ft | 202 kts | 82° |
| 2026-04-26 18:36 | 51.16604 | -0.08816 | 3327 ft | 214 kts | 81° |
| 2026-04-26 18:36 | 51.17040 | -0.06468 | 3812 ft | 231 kts | 62° |
| 2026-04-26 18:36 | 51.17966 | -0.04222 | 4235 ft | 252 kts | 52° |
| 2026-04-26 18:37 | 51.19088 | -0.01971 | 4771 ft | 262 kts | 51° |
| 2026-04-26 18:37 | 51.20242 | 0.00266 | 5000 ft | 264 kts | 51° |
| 2026-04-26 18:37 | 51.21408 | 0.02517 | 5021 ft | 264 kts | 51° |
| 2026-04-26 18:37 | 51.22578 | 0.04779 | 5020 ft | 264 kts | 51° |
| 2026-04-26 18:38 | 51.23683 | 0.07127 | 5013 ft | 264 kts | 60° |
| 2026-04-26 18:38 | 51.24335 | 0.09863 | 5022 ft | 264 kts | 76° |
| 2026-04-26 18:38 | 51.24729 | 0.12737 | 5021 ft | 265 kts | 79° |
| 2026-04-26 18:38 | 51.25072 | 0.15612 | 5024 ft | 265 kts | 79° |
| 2026-04-26 18:39 | 51.25417 | 0.18523 | 5021 ft | 265 kts | 79° |
| 2026-04-26 18:39 | 51.25763 | 0.21413 | 5019 ft | 265 kts | 79° |
| 2026-04-26 18:39 | 51.26109 | 0.24268 | 4978 ft | 265 kts | 79° |
| 2026-04-26 18:39 | 51.26462 | 0.27164 | 4966 ft | 265 kts | 78° |
| 2026-04-26 18:40 | 51.26817 | 0.30074 | 4971 ft | 265 kts | 79° |
| 2026-04-26 18:40 | 51.27227 | 0.32931 | 4968 ft | 265 kts | 71° |
| 2026-04-26 18:40 | 51.28079 | 0.35516 | 4968 ft | 264 kts | 50° |
| 2026-04-26 18:40 | 51.29483 | 0.37374 | 4972 ft | 264 kts | 27° |
| 2026-04-26 18:41 | 51.31233 | 0.38173 | 4977 ft | 264 kts | 3° |
| 2026-04-26 18:41 | 51.33052 | 0.37784 | 4975 ft | 265 kts | 341° |
| 2026-04-26 18:41 | 51.34749 | 0.36634 | 4981 ft | 267 kts | 335° |
| 2026-04-26 18:41 | 51.36418 | 0.35312 | 4983 ft | 267 kts | 334° |
| 2026-04-26 18:42 | 51.38081 | 0.33980 | 5021 ft | 267 kts | 334° |
| 2026-04-26 18:42 | 51.39748 | 0.32655 | 5014 ft | 267 kts | 334° |
| 2026-04-26 18:42 | 51.41413 | 0.31361 | 5018 ft | 267 kts | 336° |
| 2026-04-26 18:42 | 51.43100 | 0.30146 | 5018 ft | 267 kts | 336° |
| 2026-04-26 18:43 | 51.44818 | 0.28945 | 5252 ft | 269 kts | 337° |
| 2026-04-26 18:43 | 51.46532 | 0.27756 | 5770 ft | 271 kts | 337° |
| 2026-04-26 18:43 | 51.48264 | 0.26554 | 5998 ft | 271 kts | 336° |
| 2026-04-26 18:43 | 51.49984 | 0.25361 | 6019 ft | 271 kts | 336° |
| 2026-04-26 18:44 | 51.51730 | 0.24148 | 6023 ft | 272 kts | 336° |
| 2026-04-26 18:44 | 51.53462 | 0.22944 | 6019 ft | 272 kts | 336° |
| 2026-04-26 18:44 | 51.55188 | 0.21743 | 6017 ft | 272 kts | 336° |
| 2026-04-26 18:44 | 51.56933 | 0.20529 | 6020 ft | 272 kts | 336° |
| 2026-04-26 18:45 | 51.58658 | 0.19327 | 6024 ft | 272 kts | 336° |
| 2026-04-26 18:45 | 51.60378 | 0.18128 | 6019 ft | 272 kts | 336° |
| 2026-04-26 18:45 | 51.62119 | 0.16913 | 6017 ft | 272 kts | 336° |
| 2026-04-26 18:45 | 51.63833 | 0.15594 | 6018 ft | 272 kts | 328° |
| 2026-04-26 18:46 | 51.65249 | 0.13633 | 6015 ft | 271 kts | 312° |
| 2026-04-26 18:46 | 51.66435 | 0.11266 | 6020 ft | 272 kts | 306° |
| 2026-04-26 18:46 | 51.67480 | 0.08735 | 6213 ft | 273 kts | 302° |
| 2026-04-26 18:46 | 51.68483 | 0.06075 | 6924 ft | 276 kts | 301° |
| 2026-04-26 18:47 | 51.69460 | 0.03445 | 7831 ft | 275 kts | 301° |
| 2026-04-26 18:47 | 51.70449 | 0.00820 | 8696 ft | 275 kts | 301° |
| 2026-04-26 18:47 | 51.71456 | -0.01796 | 9559 ft | 276 kts | 301° |
| 2026-04-26 18:47 | 51.72482 | -0.04416 | 10334 ft | 279 kts | 301° |
| 2026-04-26 18:48 | 51.73554 | -0.07103 | 10775 ft | 295 kts | 303° |
| 2026-04-26 18:48 | 51.74885 | -0.09754 | 11067 ft | 315 kts | 313° |
| 2026-04-26 18:48 | 51.76610 | -0.12110 | 11355 ft | 335 kts | 322° |
| 2026-04-26 18:48 | 51.78605 | -0.14319 | 11660 ft | 354 kts | 326° |
| 2026-04-26 18:49 | 51.80732 | -0.16420 | 12067 ft | 367 kts | 328° |
| 2026-04-26 18:49 | 51.82991 | -0.18529 | 12664 ft | 374 kts | 329° |
| 2026-04-26 18:49 | 51.85236 | -0.20590 | 13306 ft | 379 kts | 328° |
| 2026-04-26 18:49 | 51.87550 | -0.22723 | 13978 ft | 383 kts | 328° |
| 2026-04-26 18:50 | 51.89867 | -0.24885 | 14601 ft | 387 kts | 328° |
| 2026-04-26 18:50 | 51.92215 | -0.27102 | 15279 ft | 388 kts | 328° |
| 2026-04-26 18:50 | 51.94530 | -0.29306 | 15929 ft | 390 kts | 327° |
| 2026-04-26 18:50 | 51.96889 | -0.31567 | 16584 ft | 393 kts | 327° |
| 2026-04-26 18:51 | 51.99240 | -0.33827 | 17207 ft | 395 kts | 327° |
| 2026-04-26 18:51 | 52.01644 | -0.36142 | 17833 ft | 398 kts | 327° |
| 2026-04-26 18:51 | 52.04027 | -0.38440 | 18447 ft | 401 kts | 327° |
| 2026-04-26 18:51 | 52.06406 | -0.40736 | 18956 ft | 404 kts | 327° |
| 2026-04-26 18:52 | 52.08837 | -0.43085 | 19421 ft | 407 kts | 327° |
| 2026-04-26 18:52 | 52.11284 | -0.45449 | 19896 ft | 410 kts | 327° |
| 2026-04-26 18:52 | 52.13760 | -0.47844 | 20384 ft | 413 kts | 327° |
| 2026-04-26 18:52 | 52.16234 | -0.50238 | 20842 ft | 416 kts | 327° |
| 2026-04-26 18:53 | 52.18714 | -0.52642 | 21297 ft | 419 kts | 327° |
| 2026-04-26 18:53 | 52.21223 | -0.55077 | 21739 ft | 422 kts | 327° |
| 2026-04-26 18:53 | 52.23761 | -0.57545 | 22186 ft | 425 kts | 327° |
| 2026-04-26 18:53 | 52.26304 | -0.60023 | 22631 ft | 428 kts | 327° |
| 2026-04-26 18:54 | 52.28869 | -0.62527 | 23066 ft | 430 kts | 326° |
| 2026-04-26 18:54 | 52.31462 | -0.65062 | 23508 ft | 433 kts | 326° |
| 2026-04-26 18:54 | 52.34074 | -0.67620 | 23928 ft | 436 kts | 326° |
| 2026-04-26 18:54 | 52.36652 | -0.70148 | 24303 ft | 438 kts | 326° |
| 2026-04-26 18:55 | 52.39279 | -0.72724 | 24680 ft | 440 kts | 326° |
| 2026-04-26 18:55 | 52.41909 | -0.75305 | 25050 ft | 442 kts | 326° |
| 2026-04-26 18:55 | 52.44552 | -0.77902 | 25421 ft | 444 kts | 326° |
| 2026-04-26 18:55 | 52.47221 | -0.80527 | 25788 ft | 445 kts | 326° |
| 2026-04-26 18:56 | 52.49872 | -0.83140 | 26131 ft | 447 kts | 326° |
| 2026-04-26 18:56 | 52.52523 | -0.85756 | 26473 ft | 448 kts | 326° |
| 2026-04-26 18:56 | 52.55202 | -0.88404 | 26800 ft | 450 kts | 326° |
| 2026-04-26 18:56 | 52.57897 | -0.91072 | 27120 ft | 452 kts | 326° |
| 2026-04-26 18:57 | 52.60594 | -0.93745 | 27475 ft | 452 kts | 326° |
| 2026-04-26 18:57 | 52.61475 | -0.94619 | 27612 ft | 452 kts | 325° |
| 2026-04-26 18:57 | 52.65956 | -0.99070 | 28420 ft | 448 kts | 325° |
| 2026-04-26 18:57 | 52.68565 | -1.01667 | 28866 ft | 446 kts | 325° |
| 2026-04-26 18:58 | 52.71273 | -1.04369 | 29325 ft | 445 kts | 325° |
| 2026-04-26 18:58 | 52.73027 | -1.06121 | 29599 ft | 444 kts | 325° |
| 2026-04-26 18:58 | 52.76527 | -1.09622 | 30143 ft | 442 kts | 324° |
| 2026-04-26 18:58 | 52.78276 | -1.11375 | 30401 ft | 442 kts | 324° |
| 2026-04-26 18:59 | 52.80913 | -1.14021 | 30712 ft | 441 kts | 324° |
| 2026-04-26 18:59 | 52.83539 | -1.16660 | 30980 ft | 442 kts | 324° |
| 2026-04-26 18:59 | 52.86160 | -1.19298 | 31257 ft | 442 kts | 324° |
| 2026-04-26 18:59 | 52.88790 | -1.21948 | 31528 ft | 442 kts | 324° |
| 2026-04-26 19:00 | 52.91422 | -1.24603 | 31803 ft | 442 kts | 324° |
| 2026-04-26 19:00 | 52.94055 | -1.27263 | 32079 ft | 442 kts | 324° |
| 2026-04-26 19:00 | 52.96662 | -1.29901 | 32252 ft | 444 kts | 324° |
| 2026-04-26 19:00 | 52.99313 | -1.32589 | 32267 ft | 446 kts | 324° |
| 2026-04-26 19:01 | 53.04600 | -1.37954 | 32265 ft | 446 kts | 324° |
| 2026-04-26 19:01 | 53.09881 | -1.43328 | 32266 ft | 446 kts | 324° |
| 2026-04-26 19:02 | 53.15189 | -1.48746 | 32256 ft | 446 kts | 324° |
| 2026-04-26 19:02 | 53.19596 | -1.53256 | 32269 ft | 447 kts | 323° |
| 2026-04-26 19:03 | 53.25754 | -1.59577 | 32272 ft | 447 kts | 323° |
| 2026-04-26 19:03 | 53.31048 | -1.65029 | 32257 ft | 447 kts | 323° |
| 2026-04-26 19:04 | 53.36337 | -1.70499 | 32267 ft | 447 kts | 323° |
| 2026-04-26 19:04 | 53.41634 | -1.75993 | 32266 ft | 447 kts | 323° |
| 2026-04-26 19:05 | 53.49578 | -1.84261 | 32261 ft | 447 kts | 323° |
| 2026-04-26 19:06 | 53.54846 | -1.89759 | 32262 ft | 448 kts | 323° |
| 2026-04-26 19:06 | 53.60123 | -1.95281 | 32265 ft | 448 kts | 323° |
| 2026-04-26 19:07 | 53.65436 | -2.00841 | 32264 ft | 448 kts | 323° |
| 2026-04-26 19:07 | 53.70720 | -2.06390 | 32265 ft | 448 kts | 323° |
| 2026-04-26 19:08 | 53.76235 | -2.11398 | 32268 ft | 453 kts | 331° |
| 2026-04-26 19:08 | 53.82039 | -2.15542 | 32267 ft | 455 kts | 333° |
| 2026-04-26 19:09 | 53.87911 | -2.19538 | 32259 ft | 455 kts | 333° |
| 2026-04-26 19:09 | 53.93801 | -2.23532 | 32269 ft | 455 kts | 333° |
| 2026-04-26 19:10 | 53.99668 | -2.27534 | 32262 ft | 455 kts | 333° |
| 2026-04-26 19:10 | 54.05553 | -2.31583 | 32266 ft | 455 kts | 333° |
| 2026-04-26 19:11 | 54.11387 | -2.35624 | 32274 ft | 455 kts | 333° |
| 2026-04-26 19:11 | 54.17254 | -2.39701 | 32267 ft | 455 kts | 333° |
| 2026-04-26 19:12 | 54.23119 | -2.43781 | 32273 ft | 455 kts | 333° |
| 2026-04-26 19:12 | 54.28935 | -2.47835 | 32268 ft | 455 kts | 333° |
| 2026-04-26 19:13 | 54.34849 | -2.51970 | 32266 ft | 455 kts | 333° |
| 2026-04-26 19:13 | 54.40695 | -2.56070 | 32270 ft | 454 kts | 333° |
| 2026-04-26 19:14 | 54.46544 | -2.60186 | 32266 ft | 453 kts | 333° |
| 2026-04-26 19:14 | 54.52353 | -2.64285 | 31829 ft | 450 kts | 333° |
| 2026-04-26 19:14 | 54.54272 | -2.65643 | 31400 ft | 450 kts | 333° |
| 2026-04-26 19:15 | 54.58147 | -2.68392 | 30481 ft | 451 kts | 333° |
| 2026-04-26 19:15 | 54.61081 | -2.70480 | 29647 ft | 452 kts | 333° |
| 2026-04-26 19:15 | 54.63979 | -2.72545 | 28839 ft | 453 kts | 333° |
| 2026-04-26 19:15 | 54.66903 | -2.74631 | 28037 ft | 454 kts | 334° |
| 2026-04-26 19:16 | 54.69825 | -2.76718 | 27248 ft | 455 kts | 334° |
| 2026-04-26 19:16 | 54.72717 | -2.78796 | 26611 ft | 456 kts | 334° |
| 2026-04-26 19:16 | 54.75648 | -2.80904 | 26309 ft | 445 kts | 334° |
| 2026-04-26 19:16 | 54.78435 | -2.82905 | 26259 ft | 429 kts | 334° |
| 2026-04-26 19:17 | 54.81143 | -2.84849 | 26255 ft | 412 kts | 334° |
| 2026-04-26 19:17 | 54.83749 | -2.86722 | 26256 ft | 397 kts | 334° |
| 2026-04-26 19:17 | 54.86255 | -2.88527 | 26258 ft | 383 kts | 334° |
| 2026-04-26 19:17 | 54.88679 | -2.90279 | 26264 ft | 380 kts | 334° |
| 2026-04-26 19:18 | 54.91122 | -2.92049 | 26039 ft | 378 kts | 334° |
| 2026-04-26 19:18 | 54.93512 | -2.93782 | 25602 ft | 376 kts | 334° |
| 2026-04-26 19:18 | 54.95932 | -2.95537 | 25188 ft | 373 kts | 334° |
| 2026-04-26 19:18 | 54.98321 | -2.97270 | 24797 ft | 370 kts | 334° |
| 2026-04-26 19:19 | 55.00687 | -2.98989 | 24416 ft | 367 kts | 334° |
| 2026-04-26 19:19 | 55.03058 | -3.00712 | 24032 ft | 364 kts | 334° |
| 2026-04-26 19:19 | 55.05375 | -3.02399 | 23616 ft | 362 kts | 334° |
| 2026-04-26 19:19 | 55.07705 | -3.04096 | 23139 ft | 359 kts | 334° |
| 2026-04-26 19:20 | 55.10005 | -3.05774 | 22679 ft | 357 kts | 334° |
| 2026-04-26 19:20 | 55.11519 | -3.06879 | 22377 ft | 356 kts | 334° |
| 2026-04-26 19:20 | 55.14529 | -3.09080 | 21784 ft | 352 kts | 334° |
| 2026-04-26 19:20 | 55.16806 | -3.10747 | 21329 ft | 350 kts | 334° |
| 2026-04-26 19:21 | 55.19042 | -3.12386 | 20893 ft | 348 kts | 334° |
| 2026-04-26 19:21 | 55.21255 | -3.14011 | 20477 ft | 346 kts | 334° |
| 2026-04-26 19:21 | 55.23456 | -3.15629 | 20283 ft | 343 kts | 334° |
| 2026-04-26 19:21 | 55.25664 | -3.17254 | 20255 ft | 340 kts | 334° |
| 2026-04-26 19:22 | 55.27824 | -3.18843 | 20249 ft | 331 kts | 334° |
| 2026-04-26 19:22 | 55.30000 | -3.20032 | 20248 ft | 332 kts | 350° |
| 2026-04-26 19:22 | 55.32325 | -3.20110 | 19991 ft | 334 kts | 0° |
| 2026-04-26 19:22 | 55.34641 | -3.19778 | 19580 ft | 334 kts | 2° |
| 2026-04-26 19:23 | 55.36949 | -3.19377 | 19181 ft | 332 kts | 2° |
| 2026-04-26 19:23 | 55.39255 | -3.18980 | 18788 ft | 331 kts | 2° |
| 2026-04-26 19:23 | 55.41519 | -3.18603 | 18364 ft | 329 kts | 2° |
| 2026-04-26 19:23 | 55.43797 | -3.18233 | 17939 ft | 327 kts | 1° |
| 2026-04-26 19:24 | 55.46058 | -3.17871 | 17513 ft | 325 kts | 1° |
| 2026-04-26 19:24 | 55.48309 | -3.17514 | 17109 ft | 323 kts | 1° |
| 2026-04-26 19:24 | 55.52760 | -3.16812 | 16272 ft | 320 kts | 1° |
| 2026-04-26 19:25 | 55.54982 | -3.16463 | 15866 ft | 318 kts | 1° |
| 2026-04-26 19:25 | 55.56441 | -3.16233 | 15609 ft | 317 kts | 1° |
| 2026-04-26 19:25 | 55.59351 | -3.15775 | 14933 ft | 320 kts | 2° |
| 2026-04-26 19:25 | 55.61605 | -3.15422 | 14092 ft | 327 kts | 2° |
| 2026-04-26 19:26 | 55.63864 | -3.15064 | 13133 ft | 327 kts | 2° |
| 2026-04-26 19:26 | 55.66146 | -3.14701 | 12197 ft | 326 kts | 2° |
| 2026-04-26 19:26 | 55.68399 | -3.14352 | 11371 ft | 323 kts | 0° |
| 2026-04-26 19:26 | 55.70580 | -3.14823 | 10499 ft | 313 kts | 335° |
| 2026-04-26 19:27 | 55.72313 | -3.16970 | 9634 ft | 301 kts | 306° |
| 2026-04-26 19:27 | 55.73218 | -3.20222 | 8782 ft | 292 kts | 284° |
| 2026-04-26 19:27 | 55.73663 | -3.23714 | 7977 ft | 287 kts | 280° |
| 2026-04-26 19:27 | 55.74067 | -3.27115 | 7366 ft | 278 kts | 281° |
| 2026-04-26 19:28 | 55.74497 | -3.30426 | 6723 ft | 273 kts | 282° |
| 2026-04-26 19:28 | 55.74950 | -3.33660 | 6050 ft | 267 kts | 283° |
| 2026-04-26 19:28 | 55.75416 | -3.36827 | 5380 ft | 263 kts | 284° |
| 2026-04-26 19:28 | 55.75886 | -3.39939 | 4722 ft | 259 kts | 284° |
| 2026-04-26 19:29 | 55.76349 | -3.42958 | 4327 ft | 253 kts | 285° |
| 2026-04-26 19:29 | 55.76816 | -3.45983 | 4236 ft | 254 kts | 285° |
| 2026-04-26 19:29 | 55.77287 | -3.49015 | 4014 ft | 254 kts | 285° |
| 2026-04-26 19:29 | 55.77758 | -3.52048 | 3967 ft | 255 kts | 285° |
| 2026-04-26 19:30 | 55.78230 | -3.55089 | 3968 ft | 254 kts | 285° |
| 2026-04-26 19:30 | 55.78696 | -3.58089 | 3964 ft | 254 kts | 285° |
| 2026-04-26 19:30 | 55.79168 | -3.61137 | 3965 ft | 254 kts | 284° |
| 2026-04-26 19:30 | 55.79479 | -3.63144 | 3969 ft | 254 kts | 284° |
| 2026-04-26 19:31 | 55.80093 | -3.67121 | 3953 ft | 239 kts | 284° |
| 2026-04-26 19:31 | 55.80615 | -3.69829 | 3969 ft | 224 kts | 299° |
| 2026-04-26 19:31 | 55.81702 | -3.71480 | 3972 ft | 201 kts | 341° |
| 2026-04-26 19:31 | 55.82987 | -3.71324 | 3953 ft | 180 kts | 25° |
| 2026-04-26 19:32 | 55.83881 | -3.69898 | 3962 ft | 171 kts | 52° |
| 2026-04-26 19:32 | 55.84530 | -3.68117 | 3968 ft | 172 kts | 58° |
| 2026-04-26 19:32 | 55.85145 | -3.66278 | 3969 ft | 173 kts | 58° |
| 2026-04-26 19:32 | 55.85765 | -3.64438 | 3930 ft | 173 kts | 58° |
| 2026-04-26 19:33 | 55.86393 | -3.62587 | 3513 ft | 180 kts | 58° |
| 2026-04-26 19:33 | 55.87046 | -3.60678 | 3130 ft | 179 kts | 58° |
| 2026-04-26 19:33 | 55.87684 | -3.58813 | 2790 ft | 176 kts | 57° |
| 2026-04-26 19:33 | 55.88312 | -3.56978 | 2530 ft | 170 kts | 57° |
| 2026-04-26 19:34 | 55.88919 | -3.55186 | 2311 ft | 169 kts | 57° |
| 2026-04-26 19:34 | 55.89528 | -3.53390 | 2086 ft | 169 kts | 57° |
| 2026-04-26 19:34 | 55.90130 | -3.51616 | 1857 ft | 169 kts | 57° |
| 2026-04-26 19:34 | 55.90742 | -3.49813 | 1622 ft | 168 kts | 57° |
| 2026-04-26 19:35 | 55.91338 | -3.48056 | 1394 ft | 167 kts | 58° |
| 2026-04-26 19:35 | 55.91938 | -3.46287 | 1167 ft | 165 kts | 58° |
| 2026-04-26 19:35 | 55.92530 | -3.44538 | 944 ft | 163 kts | 58° |
| 2026-04-26 19:35 | 55.93115 | -3.42814 | 718 ft | 160 kts | 58° |
| 2026-04-26 19:36 | 55.93686 | -3.41126 | 502 ft | 157 kts | 58° |
| 2026-04-26 19:36 | 55.93871 | -3.40582 | 432 ft | 156 kts | 59° |
| 2026-04-26 19:36 | 55.94778 | -3.37894 | 125 ft | 146 kts | 58° |
| 2026-04-26 19:36 | 55.95238 | -3.36541 | 112 ft | 91 kts | 57° |
| 2026-04-26 19:37 | 55.95454 | -3.35909 | 108 ft | 48 kts | 57° |
| 2026-04-26 19:37 | 55.95560 | -3.35591 | 111 ft | 23 kts | 67° |
| 2026-04-26 19:37 | 55.95529 | -3.35472 | 111 ft | 11 kts | 150° |
| 2026-04-26 19:37 | 55.95471 | -3.35412 | 112 ft | 0 kts | 149° |
| 2026-04-26 19:42 | 55.95467 | -3.35410 | 112 ft | 4 kts | 161° |
| 2026-04-26 19:42 | 55.95415 | -3.35448 | 112 ft | 13 kts | 237° |
| 2026-04-26 19:42 | 55.95349 | -3.35644 | 111 ft | 25 kts | 239° |
| 2026-04-26 19:43 | 55.95253 | -3.35934 | 109 ft | 22 kts | 239° |
| 2026-04-26 19:43 | 55.95193 | -3.35977 | 110 ft | 8 kts | 150° |
| 2026-04-26 19:43 | 55.95154 | -3.35931 | 110 ft | 5 kts | 146° |
| 2026-04-26 19:43 | 55.95143 | -3.35917 | 112 ft | 2 kts | 146° |
| 2026-04-26 19:44 | 55.95112 | -3.35840 | 112 ft | 10 kts | 117° |
| 2026-04-26 19:44 | 55.95086 | -3.35774 | 111 ft | 1 kts | 187° |
| 2026-04-26 19:44 | 55.95023 | -3.35823 | 110 ft | 4 kts | 206° |
| 2026-04-26 19:44 | 55.95013 | -3.35831 | 110 ft | 7 kts | 207° |
| 2026-04-26 19:45 | 55.94973 | -3.35860 | 111 ft | 6 kts | 186° |
| 2026-04-26 19:45 | 55.94964 | -3.35860 | 111 ft | 0 kts | 176° |
| 2026-04-26 19:45 | 55.94957 | -3.35857 | 111 ft | 5 kts | 162° |
| 2026-04-26 19:45 | 55.94917 | -3.35878 | 110 ft | 7 kts | 245° |
| 2026-04-26 19:46 | 55.94910 | -3.35909 | 110 ft | 0 kts | 251° |
| 2026-04-26 19:46 | 55.94906 | -3.35929 | 110 ft | 6 kts | 250° |
| 2026-04-26 19:46 | 55.94905 | -3.35935 | 110 ft | 0 kts | 249° |
| 2026-04-26 19:46 | 55.94904 | -3.35940 | 110 ft | 0 kts | 251° |